Time;durP1;ratioP1;P1;durP2;ratioP2;P2;SDS_P1;SDS_P2;PMS_P1;PMS_P2;Temp;Humidity;BMP_temperature;BMP_pressure;BME280_temperature;BME280_humidity;BME280_pressure;Samples;Min_cycle;Max_cycle;Signal;HPM_P1;HPM_P2
2022/05/26 00:02:42;;;;;;;8.93;5.28;;;;;;;;;;6312375;27;20056;-71
2022/05/26 00:05:44;;;;;;;7.70;5.93;;;;;;;;;;6313910;28;20066;-71
2022/05/26 00:08:46;;;;;;;7.95;5.97;;;;;;;;;;6311058;28;20056;-70
2022/05/26 00:11:49;;;;;;;9.75;5.45;;;;;;;;;;6314231;28;20235;-71
2022/05/26 00:14:51;;;;;;;7.60;4.90;;;;;;;;;;6312755;28;20056;-70
2022/05/26 00:17:53;;;;;;;6.55;4.50;;;;;;;;;;6312917;28;20052;-70
2022/05/26 00:20:54;;;;;;;8.23;4.85;;;;;;;;;;6311754;27;20048;-72
2022/05/26 00:23:56;;;;;;;8.93;4.55;;;;;;;;;;6311071;28;20048;-71
2022/05/26 00:26:59;;;;;;;7.85;5.43;;;;;;;;;;6308527;27;20105;-71
2022/05/26 00:30:01;;;;;;;6.88;4.90;;;;;;;;;;6313284;27;20052;-72
2022/05/26 00:33:02;;;;;;;7.57;4.93;;;;;;;;;;6311128;28;20044;-74
2022/05/26 00:36:05;;;;;;;8.73;4.28;;;;;;;;;;6312844;28;20353;-73
2022/05/26 00:39:09;;;;;;;7.07;4.50;;;;;;;;;;6312285;28;20051;-73
2022/05/26 00:42:11;;;;;;;;;;;;;;;;;;6311446;28;20266;-73
2022/05/26 00:45:13;;;;;;;9.38;4.85;;;;;;;;;;6310500;28;19923;-73
2022/05/26 00:48:16;;;;;;;8.30;4.55;;;;;;;;;;6311528;27;20116;-73
2022/05/26 00:51:22;;;;;;;7.05;4.47;;;;;;;;;;6306949;28;20047;-70
2022/05/26 00:54:25;;;;;;;6.32;5.05;;;;;;;;;;6309726;28;20059;-70
2022/05/26 00:57:33;;;;;;;8.38;4.82;;;;;;;;;;6311763;28;20055;-70
2022/05/26 01:00:36;;;;;;;9.40;5.15;;;;;;;;;;6312118;27;20036;-70
2022/05/26 01:03:42;;;;;;;9.50;5.07;;;;;;;;;;6311869;28;20052;-70
2022/05/26 01:06:46;;;;;;;11.57;5.70;;;;;;;;;;6310822;28;20059;-70
2022/05/26 01:09:48;;;;;;;6.78;4.78;;;;;;;;;;6312992;28;20063;-70
2022/05/26 01:12:51;;;;;;;7.47;4.35;;;;;;;;;;6314243;28;20322;-70
2022/05/26 01:15:56;;;;;;;15.70;5.25;;;;;;;;;;6311448;28;20063;-71
2022/05/26 01:19:08;;;;;;;11.02;5.05;;;;;;;;;;6311346;28;20054;-70
2022/05/26 01:22:19;;;;;;;11.75;4.00;;;;;;;;;;6311936;27;20047;-71
2022/05/26 01:25:38;;;;;;;9.13;4.63;;;;;;;;;;6312274;28;20059;-70
2022/05/26 01:29:01;;;;;;;6.85;3.75;;;;;;;;;;6312131;28;20128;-71
2022/05/26 01:32:08;;;;;;;4.95;3.75;;;;;;;;;;6313478;28;20089;-71
2022/05/26 01:35:15;;;;;;;6.45;3.20;;;;;;;;;;6297340;28;20331;-72
2022/05/26 01:38:23;;;;;;;6.32;3.92;;;;;;;;;;6285146;28;20053;-72
2022/05/26 01:41:39;;;;;;;6.30;3.30;;;;;;;;;;6284289;28;20048;-70
2022/05/26 01:44:50;;;;;;;8.43;4.30;;;;;;;;;;6286392;28;20477;-71
2022/05/26 01:48:00;;;;;;;5.00;3.70;;;;;;;;;;6290699;28;20044;-71
2022/05/26 01:51:04;;;;;;;6.38;3.38;;;;;;;;;;6291077;28;20044;-71
2022/05/26 01:54:12;;;;;;;3.85;2.85;;;;;;;;;;6290835;28;20044;-72
2022/05/26 01:57:17;;;;;;;5.30;3.20;;;;;;;;;;6291180;28;20057;-71
2022/05/26 02:00:20;;;;;;;5.78;3.28;;;;;;;;;;6289619;28;20129;-72
2022/05/26 02:03:27;;;;;;;5.82;3.40;;;;;;;;;;6292399;28;20125;-71
2022/05/26 02:06:31;;;;;;;3.95;2.88;;;;;;;;;;6294514;28;20047;-71
2022/05/26 02:09:41;;;;;;;5.38;2.85;;;;;;;;;;6302899;27;20052;-72
2022/05/26 02:12:46;;;;;;;4.10;2.50;;;;;;;;;;6286294;28;20108;-72
2022/05/26 02:15:50;;;;;;;4.70;2.90;;;;;;;;;;6288011;28;20377;-72
2022/05/26 02:18:54;;;;;;;;;;;;;;;;;;6306380;28;20060;-71
2022/05/26 02:22:01;;;;;;;4.43;3.13;;;;;;;;;;6306442;28;20001;-72
2022/05/26 02:25:06;;;;;;;6.13;3.08;;;;;;;;;;6313178;27;20048;-71
2022/05/26 02:28:08;;;;;;;4.82;3.20;;;;;;;;;;6314164;28;20216;-72
2022/05/26 02:31:10;;;;;;;7.05;3.85;;;;;;;;;;6313998;28;20054;-72
2022/05/26 02:34:13;;;;;;;4.43;3.20;;;;;;;;;;6309577;28;20052;-72
2022/05/26 02:37:16;;;;;;;6.35;3.50;;;;;;;;;;6315834;28;20059;-72
2022/05/26 02:40:18;;;;;;;4.75;3.85;;;;;;;;;;6311873;27;20127;-71
2022/05/26 02:43:21;;;;;;;6.05;4.05;;;;;;;;;;6311558;28;20297;-72
2022/05/26 02:46:33;;;;;;;9.48;4.30;;;;;;;;;;6314767;27;20056;-72
2022/05/26 02:49:44;;;;;;;6.70;3.88;;;;;;;;;;6314476;28;20485;-72
2022/05/26 02:52:57;;;;;;;5.72;3.58;;;;;;;;;;6313767;28;20052;-72
2022/05/26 02:56:04;;;;;;;6.85;4.43;;;;;;;;;;6314243;28;20048;-72
2022/05/26 02:59:13;;;;;;;6.97;5.38;;;;;;;;;;6314180;28;20059;-72
2022/05/26 03:02:20;;;;;;;9.60;5.32;;;;;;;;;;6317435;28;20145;-72
2022/05/26 03:05:25;;;;;;;10.05;5.68;;;;;;;;;;6312981;28;20845;-72
2022/05/26 03:08:30;;;;;;;8.48;5.50;;;;;;;;;;6312722;28;20229;-72
2022/05/26 03:11:43;;;;;;;9.30;6.55;;;;;;;;;;6315584;28;20051;-72
2022/05/26 03:14:45;;;;;;;8.05;6.82;;;;;;;;;;6315055;28;20048;-72
2022/05/26 03:17:46;;;;;;;10.50;7.65;;;;;;;;;;6316108;28;20097;-71
2022/05/26 03:20:49;;;;;;;12.38;6.70;;;;;;;;;;6313515;28;20183;-72
2022/05/26 03:23:51;;;;;;;12.85;7.50;;;;;;;;;;6312260;27;20044;-71
2022/05/26 03:26:53;;;;;;;11.90;6.38;;;;;;;;;;6314062;27;20051;-72
2022/05/26 03:29:55;;;;;;;8.63;6.00;;;;;;;;;;6316795;28;20052;-72
2022/05/26 03:32:57;;;;;;;7.43;5.80;;;;;;;;;;6312692;28;20071;-72
2022/05/26 03:42:38;;;;;;;11.80;5.95;;;;;;;;;;6313501;27;20044;-72
2022/05/26 03:45:40;;;;;;;10.18;5.85;;;;;;;;;;6312098;28;20075;-72
2022/05/26 03:48:41;;;;;;;6.55;5.65;;;;;;;;;;6312014;27;20052;-72
2022/05/26 03:51:44;;;;;;;8.07;5.57;;;;;;;;;;6312997;28;20047;-72
2022/05/26 03:54:46;;;;;;;6.47;5.47;;;;;;;;;;6313273;28;20064;-72
2022/05/26 03:57:48;;;;;;;8.10;6.25;;;;;;;;;;6312758;28;20102;-72
2022/05/26 04:00:50;;;;;;;9.90;6.47;;;;;;;;;;6312618;27;20048;-72
2022/05/26 04:03:52;;;;;;;11.48;7.05;;;;;;;;;;6313378;27;20055;-72
2022/05/26 04:06:55;;;;;;;10.45;6.35;;;;;;;;;;6314475;27;20056;-72
2022/05/26 04:09:56;;;;;;;8.50;7.38;;;;;;;;;;6314326;28;20105;-72
2022/05/26 04:12:58;;;;;;;11.75;7.05;;;;;;;;;;6312830;28;20372;-72
2022/05/26 04:16:00;;;;;;;10.55;7.45;;;;;;;;;;6314098;27;20051;-72
2022/05/26 04:19:01;;;;;;;9.50;7.32;;;;;;;;;;6313551;27;20063;-72
2022/05/26 04:22:18;;;;;;;12.95;7.25;;;;;;;;;;6313340;28;20067;-71
2022/05/26 04:25:22;;;;;;;13.30;7.10;;;;;;;;;;6314747;27;20071;-71
2022/05/26 04:28:23;;;;;;;12.23;7.03;;;;;;;;;;6312387;28;20052;-71
2022/05/26 04:31:25;;;;;;;9.93;7.05;;;;;;;;;;6312051;28;20115;-71
2022/05/26 04:34:27;;;;;;;8.95;5.85;;;;;;;;;;6314020;28;20224;-71
2022/05/26 04:37:30;;;;;;;9.15;5.47;;;;;;;;;;6313892;28;20052;-72
2022/05/26 04:40:32;;;;;;;11.80;6.20;;;;;;;;;;6312616;27;20106;-71
2022/05/26 04:43:34;;;;;;;7.63;6.10;;;;;;;;;;6313459;27;20062;-71
2022/05/26 04:46:36;;;;;;;6.82;5.22;;;;;;;;;;6317649;27;20048;-71
2022/05/26 04:49:38;;;;;;;10.30;5.10;;;;;;;;;;6315354;28;20040;-72
2022/05/26 04:52:42;;;;;;;9.13;4.63;;;;;;;;;;6315787;28;20051;-71
2022/05/26 04:55:44;;;;;;;8.13;4.68;;;;;;;;;;6314248;28;20129;-71
2022/05/26 04:58:47;;;;;;;10.75;4.80;;;;;;;;;;6314920;28;20056;-71
2022/05/26 05:01:48;;;;;;;10.70;4.80;;;;;;;;;;6316697;28;20111;-72
2022/05/26 05:04:50;;;;;;;13.13;5.20;;;;;;;;;;6314609;27;20058;-71
2022/05/26 05:07:53;;;;;;;7.95;4.80;;;;;;;;;;6315611;27;20189;-72
2022/05/26 05:10:55;;;;;;;9.63;5.70;;;;;;;;;;6318320;28;20078;-72
2022/05/26 05:13:57;;;;;;;6.55;4.95;;;;;;;;;;6322383;28;20109;-74
2022/05/26 05:16:58;;;;;;;8.43;4.93;;;;;;;;;;6320939;28;20068;-73
2022/05/26 05:20:00;;;;;;;8.95;6.00;;;;;;;;;;6322172;28;20055;-74
2022/05/26 05:23:06;;;;;;;7.40;5.55;;;;;;;;;;6317342;27;20085;-75
2022/05/26 05:26:09;;;;;;;6.63;5.10;;;;;;;;;;6314471;28;20052;-74
2022/05/26 05:29:14;;;;;;;8.67;5.70;;;;;;;;;;6316139;27;20093;-74
2022/05/26 05:32:17;;;;;;;9.52;6.90;;;;;;;;;;6318131;28;20063;-74
2022/05/26 05:35:21;;;;;;;8.70;6.40;;;;;;;;;;6313540;28;20117;-74
2022/05/26 05:38:25;;;;;;;8.57;5.20;;;;;;;;;;6314410;28;20125;-75
2022/05/26 05:41:27;;;;;;;7.40;4.75;;;;;;;;;;6315447;28;20047;-74
2022/05/26 05:44:29;;;;;;;5.28;4.07;;;;;;;;;;6313894;28;20055;-74
2022/05/26 05:47:30;;;;;;;9.95;4.50;;;;;;;;;;6314498;28;20049;-74
2022/05/26 05:50:32;;;;;;;6.07;3.83;;;;;;;;;;6319031;28;20054;-75
2022/05/26 05:53:35;;;;;;;7.35;3.50;;;;;;;;;;6319680;28;20106;-75
2022/05/26 05:56:38;;;;;;;8.48;4.18;;;;;;;;;;6316153;27;20056;-75
2022/05/26 05:59:40;;;;;;;5.35;2.95;;;;;;;;;;6318972;27;20113;-74
2022/05/26 06:02:42;;;;;;;5.30;3.88;;;;;;;;;;6319215;27;20304;-75
2022/05/26 06:05:43;;;;;;;5.53;4.00;;;;;;;;;;6318831;28;20390;-75
2022/05/26 06:08:46;;;;;;;8.90;4.10;;;;;;;;;;6315236;28;20055;-75
2022/05/26 06:11:49;;;;;;;5.82;3.50;;;;;;;;;;6316367;28;20043;-76
2022/05/26 06:14:51;;;;;;;6.73;3.07;;;;;;;;;;6315989;27;20334;-75
2022/05/26 06:17:52;;;;;;;4.72;2.72;;;;;;;;;;6315707;28;20060;-76
2022/05/26 06:21:01;;;;;;;4.70;3.03;;;;;;;;;;6314320;28;20350;-75
2022/05/26 06:24:05;;;;;;;4.80;2.70;;;;;;;;;;6317574;28;20048;-76
2022/05/26 06:30:26;;;;;;;5.95;2.85;;;;;;;;;;6322083;28;20055;-75
2022/05/26 06:40:08;;;;;;;6.78;2.63;;;;;;;;;;6319991;28;20040;-76
2022/05/26 06:43:10;;;;;;;9.63;3.13;;;;;;;;;;6320530;28;20060;-76
2022/05/26 06:46:12;;;;;;;4.90;2.67;;;;;;;;;;6322722;28;20048;-77
2022/05/26 06:49:14;;;;;;;5.05;3.05;;;;;;;;;;6323552;28;20066;-76
2022/05/26 06:52:17;;;;;;;5.95;2.70;;;;;;;;;;6317859;28;20276;-76
2022/05/26 06:55:20;;;;;;;6.68;2.60;;;;;;;;;;6320950;28;20115;-76
2022/05/26 06:58:22;;;;;;;4.38;2.75;;;;;;;;;;6320337;28;20071;-76
2022/05/26 07:01:23;;;;;;;8.38;3.58;;;;;;;;;;6323982;28;20060;-76
2022/05/26 07:04:25;;;;;;;6.95;3.08;;;;;;;;;;6323524;28;20057;-76
2022/05/26 07:07:27;;;;;;;5.68;3.30;;;;;;;;;;6321402;28;20051;-76
2022/05/26 07:10:33;;;;;;;9.10;3.30;;;;;;;;;;6323285;28;20102;-76
2022/05/26 07:13:35;;;;;;;5.97;3.65;;;;;;;;;;6320660;28;20098;-77
2022/05/26 07:16:37;;;;;;;5.55;3.85;;;;;;;;;;6322053;28;20062;-77
2022/05/26 07:19:39;;;;;;;6.03;3.97;;;;;;;;;;6317961;28;20055;-76
2022/05/26 07:22:41;;;;;;;8.43;4.13;;;;;;;;;;6321366;28;20052;-76
2022/05/26 07:25:45;;;;;;;11.20;4.15;;;;;;;;;;6318311;28;20049;-76
2022/05/26 07:28:48;;;;;;;6.47;4.18;;;;;;;;;;6322096;28;20089;-77
2022/05/26 07:31:50;;;;;;;9.38;4.53;;;;;;;;;;6322468;28;20059;-76
2022/05/26 07:34:51;;;;;;;6.20;4.50;;;;;;;;;;6323098;28;20048;-76
2022/05/26 07:41:20;;;;;;;9.05;5.32;;;;;;;;;;6319258;28;20335;-76
2022/05/26 07:44:22;;;;;;;6.88;5.75;;;;;;;;;;6319926;28;20243;-76
2022/05/26 07:47:26;;;;;;;7.75;5.38;;;;;;;;;;6317040;28;20060;-76
2022/05/26 07:50:28;;;;;;;12.57;5.85;;;;;;;;;;6319898;28;20046;-75
2022/05/26 07:53:30;;;;;;;11.18;5.32;;;;;;;;;;6321632;27;20052;-76
2022/05/26 07:56:36;;;;;;;11.32;6.13;;;;;;;;;;6318501;27;20041;-75
2022/05/26 07:59:38;;;;;;;9.20;6.47;;;;;;;;;;6322107;28;20063;-76
2022/05/26 08:02:40;;;;;;;14.77;7.53;;;;;;;;;;6317724;28;20089;-76
2022/05/26 08:05:42;;;;;;;11.07;7.00;;;;;;;;;;6321464;28;20101;-76
2022/05/26 08:08:44;;;;;;;7.05;5.75;;;;;;;;;;6319277;28;20104;-76
2022/05/26 08:11:47;;;;;;;9.63;7.45;;;;;;;;;;6321157;28;20055;-75
2022/05/26 08:14:48;;;;;;;12.90;7.32;;;;;;;;;;6318143;28;20284;-75
2022/05/26 08:17:50;;;;;;;9.70;7.55;;;;;;;;;;6324034;28;20048;-75
2022/05/26 08:20:52;;;;;;;9.80;7.47;;;;;;;;;;6320022;28;20114;-76
2022/05/26 08:23:54;;;;;;;10.68;8.02;;;;;;;;;;6318230;28;20228;-75
2022/05/26 08:26:57;;;;;;;14.38;8.57;;;;;;;;;;6319798;28;20352;-75
2022/05/26 08:29:59;;;;;;;12.55;8.90;;;;;;;;;;6319879;28;20043;-74
2022/05/26 08:33:00;;;;;;;11.75;7.85;;;;;;;;;;6318401;28;20047;-74
2022/05/26 08:36:03;;;;;;;11.85;8.23;;;;;;;;;;6318254;28;20067;-75
2022/05/26 08:39:05;;;;;;;;;;;;;;;;;;6316588;28;20036;-75
2022/05/26 08:42:11;;;;;;;13.40;9.00;;;;;;;;;;6316510;28;19931;-76
2022/05/26 08:45:13;;;;;;;10.43;8.13;;;;;;;;;;6320140;28;20044;-76
2022/05/26 08:48:16;;;;;;;14.48;9.68;;;;;;;;;;6319689;28;20060;-76
2022/05/26 08:51:25;;;;;;;10.10;7.57;;;;;;;;;;6320937;28;20208;-76
2022/05/26 08:54:29;;;;;;;13.45;8.25;;;;;;;;;;6315154;28;20086;-76
2022/05/26 08:57:37;;;;;;;11.50;9.45;;;;;;;;;;6318605;28;20055;-76
2022/05/26 09:00:40;;;;;;;14.20;9.52;;;;;;;;;;6315507;28;20052;-76
2022/05/26 09:03:42;;;;;;;15.38;11.02;;;;;;;;;;6320540;28;20102;-75
2022/05/26 09:13:29;;;;;;;13.07;9.80;;;;;;;;;;6319482;28;20131;-76
2022/05/26 09:16:33;;;;;;;13.13;10.05;;;;;;;;;;6320150;28;20055;-76
2022/05/26 09:19:49;;;;;;;16.38;12.52;;;;;;;;;;6321701;28;20056;-75
2022/05/26 09:22:51;;;;;;;15.60;12.68;;;;;;;;;;6321580;28;20072;-76
2022/05/26 09:25:55;;;;;;;13.03;10.97;;;;;;;;;;6320804;28;20136;-75
2022/05/26 09:29:08;;;;;;;11.50;10.23;;;;;;;;;;6316044;28;20327;-75
2022/05/26 09:32:17;;;;;;;13.07;10.10;;;;;;;;;;6320951;28;20066;-76
2022/05/26 09:35:25;;;;;;;13.00;10.27;;;;;;;;;;6322098;28;20263;-76
2022/05/26 09:38:32;;;;;;;11.48;10.30;;;;;;;;;;6317354;28;20140;-76
2022/05/26 09:41:39;;;;;;;19.02;10.80;;;;;;;;;;6322106;28;20047;-76
2022/05/26 09:44:54;;;;;;;14.23;11.85;;;;;;;;;;6318502;28;20078;-76
2022/05/26 09:47:58;;;;;;;14.45;12.43;;;;;;;;;;6318848;27;20048;-77
2022/05/26 09:51:11;;;;;;;15.80;10.05;;;;;;;;;;6317723;28;20056;-76
2022/05/26 09:54:28;;;;;;;10.70;7.78;;;;;;;;;;6314879;28;20059;-76
2022/05/26 09:57:30;;;;;;;9.57;8.68;;;;;;;;;;6318690;28;20202;-75
2022/05/26 10:00:37;;;;;;;9.07;7.38;;;;;;;;;;6322192;28;20052;-76
2022/05/26 10:03:52;;;;;;;12.77;11.43;;;;;;;;;;6321393;28;20064;-76
2022/05/26 10:06:59;;;;;;;11.57;9.18;;;;;;;;;;6323227;28;20052;-76
2022/05/26 10:10:08;;;;;;;11.38;8.38;;;;;;;;;;6322359;28;20407;-76
2022/05/26 10:13:19;;;;;;;11.48;8.23;;;;;;;;;;6320596;28;20098;-76
2022/05/26 10:16:26;;;;;;;10.90;9.80;;;;;;;;;;6319882;28;20059;-76
2022/05/26 10:19:39;;;;;;;16.65;13.35;;;;;;;;;;6319154;28;20055;-77
2022/05/26 10:22:44;;;;;;;13.50;10.23;;;;;;;;;;6320200;27;20051;-76
2022/05/26 10:25:53;;;;;;;14.02;10.45;;;;;;;;;;6324589;28;20253;-76
2022/05/26 10:29:09;;;;;;;15.27;12.43;;;;;;;;;;6323314;28;20074;-75
2022/05/26 10:32:22;;;;;;;14.73;11.18;;;;;;;;;;6326760;28;20330;-76
2022/05/26 10:35:27;;;;;;;14.00;10.75;;;;;;;;;;6325576;28;20039;-76
2022/05/26 10:38:55;;;;;;;9.45;8.45;;;;;;;;;;6328402;28;20056;-72
2022/05/26 10:42:00;;;;;;;85.80;64.65;;;;;;;;;;6322475;28;20058;-71
2022/05/26 10:45:08;;;;;;;26.45;21.58;;;;;;;;;;6322702;28;20137;-72
2022/05/26 10:48:17;;;;;;;37.17;25.80;;;;;;;;;;6324421;28;20048;-71
2022/05/26 10:51:22;;;;;;;28.65;23.70;;;;;;;;;;6322877;28;20064;-72
2022/05/26 10:54:33;;;;;;;108.22;73.38;;;;;;;;;;6321899;28;20230;-71
2022/05/26 10:57:39;;;;;;;38.17;29.90;;;;;;;;;;6320103;28;20055;-72
2022/05/26 11:00:41;;;;;;;19.42;14.52;;;;;;;;;;6323158;28;20055;-72
2022/05/26 11:03:47;;;;;;;23.23;20.10;;;;;;;;;;6322243;28;20055;-72
2022/05/26 11:06:51;;;;;;;12.05;9.13;;;;;;;;;;6325697;28;20226;-72
2022/05/26 11:09:54;;;;;;;10.60;8.27;;;;;;;;;;6320721;28;20219;-72
2022/05/26 11:13:02;;;;;;;10.68;6.88;;;;;;;;;;6319710;28;20178;-72
2022/05/26 11:19:34;;;;;;;13.25;7.28;;;;;;;;;;6321923;28;20044;-73
2022/05/26 11:22:36;;;;;;;7.85;6.15;;;;;;;;;;6319946;28;20048;-72
2022/05/26 11:25:42;;;;;;;13.77;7.88;;;;;;;;;;6319022;28;20055;-72
2022/05/26 11:28:47;;;;;;;10.23;6.72;;;;;;;;;;6318579;28;20048;-72
2022/05/26 11:38:36;;;;;;;11.80;8.30;;;;;;;;;;6314942;28;20131;-72
2022/05/26 11:41:48;;;;;;;10.32;6.68;;;;;;;;;;6317529;28;20048;-72
2022/05/26 11:44:57;;;;;;;11.20;7.60;;;;;;;;;;6315751;28;20097;-72
2022/05/26 11:48:00;;;;;;;6.90;4.97;;;;;;;;;;6316838;28;20044;-71
2022/05/26 11:51:04;;;;;;;8.05;5.00;;;;;;;;;;6317467;28;20109;-72
2022/05/26 11:54:07;;;;;;;10.13;6.97;;;;;;;;;;6299583;28;20052;-72
2022/05/26 11:57:29;;;;;;;12.15;7.43;;;;;;;;;;6311664;28;20055;-72
2022/05/26 12:00:40;;;;;;;14.05;10.18;;;;;;;;;;6312734;28;20047;-79
2022/05/26 12:04:24;;;;;;;11.02;7.72;;;;;;;;;;6298559;28;20099;-75
2022/05/26 12:07:38;;;;;;;11.07;5.97;;;;;;;;;;6270774;28;20047;-77
2022/05/26 12:10:51;;;;;;;15.80;8.75;;;;;;;;;;6274556;28;20095;-78
2022/05/26 12:13:58;;;;;;;9.93;8.13;;;;;;;;;;6277088;28;20087;-74
2022/05/26 12:17:33;;;;;;;14.05;6.88;;;;;;;;;;6271796;28;20085;-76
2022/05/26 12:20:42;;;;;;;11.52;6.00;;;;;;;;;;6191522;28;20054;-76
2022/05/26 12:23:45;;;;;;;11.50;5.85;;;;;;;;;;6191478;28;20383;-76
2022/05/26 12:26:49;;;;;;;15.48;6.15;;;;;;;;;;6197658;28;20077;-75
2022/05/26 12:30:02;;;;;;;9.27;7.05;;;;;;;;;;6197844;28;20289;-75
2022/05/26 12:33:24;;;;;;;8.52;5.82;;;;;;;;;;6199901;28;20043;-75
2022/05/26 12:36:34;;;;;;;8.15;5.85;;;;;;;;;;6195959;28;20058;-75
2022/05/26 12:40:09;;;;;;;9.57;6.28;;;;;;;;;;6195066;28;20141;-75
2022/05/26 12:43:26;;;;;;;9.10;6.32;;;;;;;;;;6228480;28;20053;-76
2022/05/26 12:46:43;;;;;;;9.98;5.38;;;;;;;;;;6242972;28;20045;-76
2022/05/26 12:50:04;;;;;;;10.55;6.85;;;;;;;;;;6245637;28;20045;-75
2022/05/26 12:53:12;;;;;;;9.55;7.00;;;;;;;;;;6251748;28;20049;-76
2022/05/26 12:56:16;;;;;;;17.05;14.07;;;;;;;;;;6318920;28;20051;-75
2022/05/26 12:59:24;;;;;;;16.08;10.23;;;;;;;;;;6319576;27;20160;-75
2022/05/26 13:02:28;;;;;;;28.17;13.55;;;;;;;;;;6316514;28;20222;-75
2022/05/26 13:05:32;;;;;;;13.85;8.18;;;;;;;;;;6318751;27;20063;-74
2022/05/26 13:08:44;;;;;;;9.52;6.35;;;;;;;;;;6320974;28;20074;-74
2022/05/26 13:11:49;;;;;;;11.90;8.65;;;;;;;;;;6325927;28;20041;-74
2022/05/26 13:14:53;;;;;;;11.45;6.05;;;;;;;;;;6320019;28;20044;-74
2022/05/26 13:17:55;;;;;;;10.40;6.20;;;;;;;;;;6323574;28;20063;-75
2022/05/26 13:20:57;;;;;;;12.05;6.63;;;;;;;;;;6322396;28;20048;-75
2022/05/26 13:23:58;;;;;;;;;;;;;;;;;;6320024;28;20043;-75
2022/05/26 13:27:02;;;;;;;11.30;5.93;;;;;;;;;;6321822;28;19931;-75
2022/05/26 13:33:23;;;;;;;13.02;6.25;;;;;;;;;;6324691;28;20300;-76
2022/05/26 13:36:29;;;;;;;7.88;5.28;;;;;;;;;;6321051;28;20044;-77
2022/05/26 13:39:31;;;;;;;10.82;5.30;;;;;;;;;;6325928;28;20059;-77
2022/05/26 13:42:34;;;;;;;13.70;6.70;;;;;;;;;;6328318;28;20048;-74
2022/05/26 13:45:37;;;;;;;14.18;5.90;;;;;;;;;;6328365;28;20040;-74
2022/05/26 13:48:42;;;;;;;12.15;6.03;;;;;;;;;;6325436;28;20084;-74
2022/05/26 13:51:46;;;;;;;8.48;6.32;;;;;;;;;;6327839;28;20075;-74
2022/05/26 13:54:50;;;;;;;12.07;6.78;;;;;;;;;;6326831;28;20049;-74
2022/05/26 13:57:54;;;;;;;10.88;6.07;;;;;;;;;;6323925;28;20044;-76
2022/05/26 14:01:01;;;;;;;9.27;6.47;;;;;;;;;;6327285;27;20063;-75
2022/05/26 14:04:03;;;;;;;14.60;6.40;;;;;;;;;;6325825;28;20119;-75
2022/05/26 14:07:28;;;;;;;15.55;8.18;;;;;;;;;;6323583;28;20138;-73
2022/05/26 14:10:32;;;;;;;21.45;14.48;;;;;;;;;;6321833;28;20052;-74
2022/05/26 14:13:35;;;;;;;22.58;14.05;;;;;;;;;;6324240;28;20258;-73
2022/05/26 14:16:38;;;;;;;10.05;5.80;;;;;;;;;;6328160;28;20056;-73
2022/05/26 14:19:47;;;;;;;9.48;5.80;;;;;;;;;;6323957;28;20582;-74
2022/05/26 14:22:50;;;;;;;9.75;5.05;;;;;;;;;;6323256;28;20089;-74
2022/05/26 14:26:00;;;;;;;9.55;5.03;;;;;;;;;;6327111;28;20064;-74
2022/05/26 14:29:03;;;;;;;10.27;5.45;;;;;;;;;;6323842;28;20045;-74
2022/05/26 14:32:13;;;;;;;12.90;5.50;;;;;;;;;;6325145;28;20047;-74
2022/05/26 14:35:17;;;;;;;13.75;6.70;;;;;;;;;;6328936;28;20047;-74
2022/05/26 14:38:19;;;;;;;20.38;6.72;;;;;;;;;;6324357;28;20067;-74
2022/05/26 14:41:21;;;;;;;14.63;6.10;;;;;;;;;;6323059;28;20062;-74
2022/05/26 14:44:23;;;;;;;9.32;5.00;;;;;;;;;;6319528;28;20063;-73
2022/05/26 14:47:26;;;;;;;11.35;5.07;;;;;;;;;;6320969;28;20044;-74
2022/05/26 14:50:28;;;;;;;18.33;6.70;;;;;;;;;;6317998;28;20052;-74
2022/05/26 14:56:58;;;;;;;12.60;5.68;;;;;;;;;;6276560;28;20323;-74
2022/05/26 15:00:00;;;;;;;10.35;4.85;;;;;;;;;;6275638;28;20064;-74
2022/05/26 15:03:03;;;;;;;8.90;4.80;;;;;;;;;;6274099;28;20049;-75
2022/05/26 15:06:04;;;;;;;22.63;6.57;;;;;;;;;;6275449;28;20053;-72
2022/05/26 15:09:08;;;;;;;12.50;6.22;;;;;;;;;;6276833;28;20037;-70
2022/05/26 15:12:11;;;;;;;11.88;6.93;;;;;;;;;;6274129;28;20048;-70
2022/05/26 15:15:15;;;;;;;9.45;6.03;;;;;;;;;;6275469;28;20123;-71
2022/05/26 15:18:18;;;;;;;17.45;7.18;;;;;;;;;;6278218;28;20116;-71
2022/05/26 15:21:20;;;;;;;10.38;7.68;;;;;;;;;;6276913;28;20045;-71
2022/05/26 15:24:22;;;;;;;11.25;7.28;;;;;;;;;;6274547;28;20189;-70
2022/05/26 15:27:26;;;;;;;16.67;7.67;;;;;;;;;;6276233;28;20344;-71
2022/05/26 15:30:27;;;;;;;10.05;7.25;;;;;;;;;;6276993;28;20135;-71
2022/05/26 15:33:30;;;;;;;9.97;6.83;;;;;;;;;;6315490;28;20048;-72
2022/05/26 15:36:32;;;;;;;10.95;6.82;;;;;;;;;;6320351;28;20043;-70
2022/05/26 15:39:34;;;;;;;12.85;6.05;;;;;;;;;;6314396;28;20203;-72
2022/05/26 15:42:36;;;;;;;13.07;5.63;;;;;;;;;;6314275;28;20227;-72
2022/05/26 15:45:38;;;;;;;12.48;5.50;;;;;;;;;;6315371;28;20473;-73
2022/05/26 15:48:43;;;;;;;15.27;6.13;;;;;;;;;;6312350;28;20066;-73
2022/05/26 15:51:47;;;;;;;11.23;6.00;;;;;;;;;;6320428;28;20055;-73
2022/05/26 15:54:48;;;;;;;12.20;5.40;;;;;;;;;;6319068;28;20135;-72
2022/05/26 15:57:50;;;;;;;14.97;6.27;;;;;;;;;;6314476;28;20044;-72
2022/05/26 16:00:52;;;;;;;19.73;9.03;;;;;;;;;;6315710;28;20330;-70
2022/05/26 16:03:55;;;;;;;15.55;10.55;;;;;;;;;;6315649;28;20067;-70
2022/05/26 16:06:57;;;;;;;18.60;12.32;;;;;;;;;;6318205;28;20054;-73
2022/05/26 16:09:59;;;;;;;11.82;7.50;;;;;;;;;;6315091;28;20190;-71
2022/05/26 16:13:00;;;;;;;19.92;8.45;;;;;;;;;;6317774;28;20250;-71
2022/05/26 16:16:02;;;;;;;12.00;7.57;;;;;;;;;;6316484;28;20055;-71
2022/05/26 16:19:05;;;;;;;13.82;7.93;;;;;;;;;;6315465;28;20048;-70
2022/05/26 16:22:06;;;;;;;15.25;9.68;;;;;;;;;;6314694;28;20221;-71
2022/05/26 16:25:09;;;;;;;16.88;9.13;;;;;;;;;;6315474;28;20103;-72
2022/05/26 16:28:11;;;;;;;14.18;8.75;;;;;;;;;;6314296;28;20079;-71
2022/05/26 16:31:13;;;;;;;15.50;9.30;;;;;;;;;;6322662;28;20062;-72
2022/05/26 16:34:17;;;;;;;12.05;8.93;;;;;;;;;;6316997;28;20044;-71
2022/05/26 16:37:17;;;;;;;18.00;9.88;;;;;;;;;;6312683;28;20115;-72
2022/05/26 16:40:19;;;;;;;17.27;10.27;;;;;;;;;;6317695;28;20103;-71
2022/05/26 16:43:21;;;;;;;19.77;9.32;;;;;;;;;;6316726;28;20040;-71
2022/05/26 16:46:23;;;;;;;17.40;8.40;;;;;;;;;;6315174;28;20124;-71
2022/05/26 16:49:26;;;;;;;13.45;7.75;;;;;;;;;;6321948;28;20056;-71
2022/05/26 16:52:27;;;;;;;16.27;8.68;;;;;;;;;;6314881;28;20059;-72
2022/05/26 16:55:29;;;;;;;24.63;10.32;;;;;;;;;;6316681;28;20056;-72
2022/05/26 16:58:31;;;;;;;17.02;9.98;;;;;;;;;;6315229;28;20067;-71
2022/05/26 17:01:32;;;;;;;17.20;9.38;;;;;;;;;;6313349;28;20401;-73
2022/05/26 17:04:36;;;;;;;13.70;9.18;;;;;;;;;;6320282;28;20132;-71
2022/05/26 17:07:38;;;;;;;16.65;8.88;;;;;;;;;;6325474;28;20059;-71
2022/05/26 17:10:41;;;;;;;14.15;9.30;;;;;;;;;;6324971;28;20252;-71
2022/05/26 17:23:44;;;;;;;16.92;9.85;;;;;;;;;;6325155;28;20048;-71
2022/05/26 17:26:46;;;;;;;16.95;9.30;;;;;;;;;;6321173;28;20103;-73
2022/05/26 17:29:48;;;;;;;19.52;8.40;;;;;;;;;;6324829;28;20056;-71
2022/05/26 17:32:49;;;;;;;14.52;9.07;;;;;;;;;;6324977;28;20114;-71
2022/05/26 17:35:53;;;;;;;17.00;8.95;;;;;;;;;;6320463;28;20168;-71
2022/05/26 17:38:54;;;;;;;11.98;7.35;;;;;;;;;;6319064;28;20354;-71
2022/05/26 17:41:58;;;;;;;15.82;6.72;;;;;;;;;;6323489;28;20097;-71
2022/05/26 17:45:00;;;;;;;12.70;7.32;;;;;;;;;;6321886;27;20052;-73
2022/05/26 17:48:01;;;;;;;16.45;6.97;;;;;;;;;;6313262;28;20048;-71
2022/05/26 17:51:04;;;;;;;18.92;6.63;;;;;;;;;;6318222;28;20051;-74
2022/05/26 17:54:10;;;;;;;12.52;5.97;;;;;;;;;;6316423;28;20044;-74
2022/05/26 17:57:13;;;;;;;15.02;6.07;;;;;;;;;;6318012;27;20051;-75
2022/05/26 18:03:36;;;;;;;14.25;6.13;;;;;;;;;;6322664;28;20063;-75
2022/05/26 18:06:39;;;;;;;;;;;;;;;;;;6319126;28;20258;-75
2022/05/26 18:09:40;;;;;;;12.80;6.83;;;;;;;;;;6321839;28;19916;-74
2022/05/26 18:12:42;;;;;;;10.52;6.60;;;;;;;;;;6321889;28;20776;-77
2022/05/26 18:15:45;;;;;;;18.23;8.00;;;;;;;;;;6328007;28;20051;-75
2022/05/26 18:18:49;;;;;;;14.65;6.75;;;;;;;;;;6320710;28;20047;-75
2022/05/26 18:21:52;;;;;;;13.18;6.13;;;;;;;;;;6324006;28;20246;-73
2022/05/26 18:24:54;;;;;;;11.63;6.43;;;;;;;;;;6322781;28;20044;-72
2022/05/26 18:27:56;;;;;;;11.90;6.72;;;;;;;;;;6329597;28;20048;-73
2022/05/26 18:30:57;;;;;;;16.92;6.68;;;;;;;;;;6322925;27;20081;-72
2022/05/26 18:34:01;;;;;;;15.15;6.90;;;;;;;;;;6324858;28;20066;-71
2022/05/26 18:37:08;;;;;;;14.43;6.68;;;;;;;;;;6319630;27;20040;-70
2022/05/26 18:40:11;;;;;;;16.27;7.00;;;;;;;;;;6324285;28;20052;-72
2022/05/26 18:43:13;;;;;;;12.77;6.45;;;;;;;;;;6316632;28;20048;-71
2022/05/26 18:46:16;;;;;;;13.15;6.30;;;;;;;;;;6323603;28;20052;-72
2022/05/26 18:49:21;;;;;;;10.55;6.28;;;;;;;;;;6324096;28;20103;-72
2022/05/26 18:52:24;;;;;;;11.10;6.03;;;;;;;;;;6323211;28;20052;-72
2022/05/26 18:55:27;;;;;;;12.73;6.18;;;;;;;;;;6321211;28;20052;-73
2022/05/26 18:58:29;;;;;;;14.98;6.47;;;;;;;;;;6323134;28;20392;-70
2022/05/26 19:01:31;;;;;;;10.50;5.22;;;;;;;;;;6317832;28;20056;-72
2022/05/26 19:04:32;;;;;;;13.45;5.82;;;;;;;;;;6325285;28;20238;-72
2022/05/26 19:07:36;;;;;;;10.32;5.38;;;;;;;;;;6322155;28;20060;-72
2022/05/26 19:10:41;;;;;;;11.60;5.43;;;;;;;;;;6324071;28;20102;-74
2022/05/26 19:13:45;;;;;;;14.68;5.93;;;;;;;;;;6326673;28;20852;-73
2022/05/26 19:16:47;;;;;;;11.05;5.88;;;;;;;;;;6323641;28;20056;-72